createdAt,value
2019-01-31T00:00:32.806Z,27.3
2019-01-31T00:01:22.391Z,27.3
2019-01-31T00:02:13.207Z,27.3
2019-01-31T00:03:03.517Z,27.2
2019-01-31T00:03:53.583Z,27.3
2019-01-31T00:04:43.082Z,27.3
2019-01-31T00:05:33.141Z,27.3
2019-01-31T00:06:23.205Z,27.3
2019-01-31T00:07:13.328Z,27.2
2019-01-31T00:08:03.064Z,27.2
2019-01-31T00:08:53.101Z,27.2
2019-01-31T00:09:44.084Z,27.2
2019-01-31T00:10:33.507Z,27.2
2019-01-31T00:11:24.092Z,27.2
2019-01-31T00:12:13.625Z,27.2
2019-01-31T00:13:03.392Z,27.2
2019-01-31T00:13:53.803Z,27.2
2019-01-31T00:14:44.344Z,27.1
2019-01-31T00:15:34.513Z,27.1
2019-01-31T00:16:23.920Z,27.2
2019-01-31T00:17:13.122Z,27.2
2019-01-31T00:18:03.741Z,27.1
2019-01-31T00:18:53.793Z,27.2
2019-01-31T00:19:44.128Z,27.1
2019-01-31T00:20:34.041Z,27.1
2019-01-31T00:21:24.049Z,27.1
2019-01-31T00:22:14.318Z,27.1
2019-01-31T00:23:04.658Z,27.1
2019-01-31T00:23:54.678Z,27.1
2019-01-31T00:24:44.468Z,27.1
2019-01-31T00:25:33.981Z,27.1
2019-01-31T00:26:24.308Z,27.1
2019-01-31T00:27:14.188Z,27.1
2019-01-31T00:28:04.706Z,27.1
2019-01-31T00:28:55.037Z,27.1
2019-01-31T00:29:45.205Z,27.1
2019-01-31T00:30:34.593Z,27.1
2019-01-31T00:31:24.950Z,27.1
2019-01-31T00:32:14.231Z,27.1
2019-01-31T00:33:05.183Z,27.1
2019-01-31T00:33:54.850Z,27.1
2019-01-31T00:34:44.889Z,27.1
2019-01-31T00:35:35.487Z,27.1
2019-01-31T00:36:25.712Z,27.1
2019-01-31T00:37:15.125Z,27.1
2019-01-31T00:38:05.665Z,27.1
2019-01-31T00:39:02.042Z,27.1
2019-01-31T00:39:45.910Z,27.1
2019-01-31T00:40:35.210Z,27.1
2019-01-31T00:41:24.856Z,27.1
2019-01-31T00:42:14.960Z,27.1
2019-01-31T00:43:05.550Z,27.1
2019-01-31T00:43:55.314Z,27.1
2019-01-31T00:44:45.688Z,27
2019-01-31T00:45:34.902Z,27
2019-01-31T00:46:25.621Z,27
2019-01-31T00:47:15.932Z,27
2019-01-31T00:48:05.276Z,27
2019-01-31T00:48:55.722Z,27.1
2019-01-31T00:49:45.927Z,27
2019-01-31T00:50:36.564Z,27
2019-01-31T00:51:40.694Z,27
2019-01-31T00:52:16.137Z,27.1
2019-01-31T00:53:06.487Z,27
2019-01-31T00:53:56.610Z,27
2019-01-31T00:54:46.567Z,27
2019-01-31T00:55:36.892Z,27
2019-01-31T00:56:27.219Z,27
2019-01-31T00:57:16.442Z,27
2019-01-31T00:58:06.511Z,26.9
2019-01-31T00:58:56.564Z,27
2019-01-31T00:59:47.184Z,26.9
2019-01-31T01:00:36.979Z,27
2019-01-31T01:01:27.584Z,27
2019-01-31T01:02:16.254Z,26.9
2019-01-31T01:03:07.446Z,26.9
2019-01-31T01:03:57.223Z,26.9
2019-01-31T01:04:47.303Z,26.9
2019-01-31T01:05:37.147Z,26.9
2019-01-31T01:06:27.376Z,26.9
2019-01-31T01:07:17.701Z,26.9
2019-01-31T01:08:07.475Z,26.9
2019-01-31T01:09:09.221Z,26.9
2019-01-31T01:09:47.598Z,26.9
2019-01-31T01:10:38.030Z,26.9
2019-01-31T01:11:28.020Z,26.9
2019-01-31T01:12:18.084Z,26.9
2019-01-31T01:13:07.956Z,26.9
2019-01-31T01:13:57.163Z,26.9
2019-01-31T01:14:48.342Z,26.9
2019-01-31T01:15:37.783Z,26.9
2019-01-31T01:16:28.148Z,26.9
2019-01-31T01:17:18.478Z,26.9
2019-01-31T01:18:07.929Z,26.9
2019-01-31T01:18:58.235Z,26.9
2019-01-31T01:19:48.582Z,26.9
2019-01-31T01:20:38.102Z,26.9
2019-01-31T01:21:28.668Z,26.9
2019-01-31T01:22:18.755Z,26.9
2019-01-31T01:23:09.075Z,26.9
2019-01-31T01:23:58.587Z,26.9
2019-01-31T01:24:49.273Z,26.9
2019-01-31T01:25:38.723Z,26.9
2019-01-31T01:26:28.753Z,26.9
2019-01-31T01:27:18.815Z,26.9
2019-01-31T01:28:09.140Z,26.9
2019-01-31T01:28:59.230Z,26.8
2019-01-31T01:29:48.167Z,26.8
2019-01-31T01:30:38.487Z,26.8
2019-01-31T01:31:29.092Z,26.8
2019-01-31T01:32:19.158Z,26.8
2019-01-31T01:33:08.927Z,26.8
2019-01-31T01:33:58.999Z,26.8
2019-01-31T01:35:00.895Z,26.8
2019-01-31T01:35:39.124Z,26.8
2019-01-31T01:36:29.317Z,26.8
2019-01-31T01:37:18.933Z,26.8
2019-01-31T01:38:09.150Z,26.8
2019-01-31T01:38:59.886Z,26.8
2019-01-31T01:39:50.222Z,26.8
2019-01-31T01:40:40.323Z,26.8
2019-01-31T01:41:29.786Z,26.8
2019-01-31T01:42:19.566Z,26.8
2019-01-31T01:43:09.893Z,26.8
2019-01-31T01:44:00.078Z,26.8
2019-01-31T01:44:49.193Z,26.8
2019-01-31T01:45:40.448Z,26.8
2019-01-31T01:46:29.693Z,26.8
2019-01-31T01:47:19.923Z,26.8
2019-01-31T01:48:09.703Z,26.8
2019-01-31T01:49:00.591Z,26.8
2019-01-31T01:49:50.353Z,26.8
2019-01-31T01:50:40.999Z,26.8
2019-01-31T01:51:30.490Z,26.8
2019-01-31T01:52:20.805Z,26.8
2019-01-31T01:53:10.591Z,26.8
2019-01-31T01:54:01.036Z,26.8
2019-01-31T01:54:50.715Z,26.8
2019-01-31T01:55:41.045Z,26.7
2019-01-31T01:56:31.235Z,26.7
2019-01-31T01:57:20.330Z,26.7
2019-01-31T01:58:10.682Z,26.7
2019-01-31T01:59:01.288Z,26.6
2019-01-31T01:59:50.245Z,26.7
2019-01-31T02:00:41.450Z,26.8
2019-01-31T02:01:31.315Z,26.8
2019-01-31T02:02:21.517Z,26.8
2019-01-31T02:03:11.014Z,26.8
2019-01-31T02:04:00.814Z,26.9
2019-01-31T02:04:50.875Z,27
2019-01-31T02:05:41.194Z,27
2019-01-31T02:06:30.857Z,27.1
2019-01-31T02:07:21.719Z,27.2
2019-01-31T02:08:12.029Z,27.3
2019-01-31T02:09:01.707Z,27.4
2019-01-31T02:09:51.742Z,27.4
2019-01-31T02:10:41.264Z,27.5
2019-01-31T02:11:31.312Z,27.6
2019-01-31T02:12:22.482Z,27.7
2019-01-31T02:13:11.974Z,27.8
2019-01-31T02:14:01.770Z,27.9
2019-01-31T02:14:52.109Z,28
2019-01-31T02:15:42.429Z,28.1
2019-01-31T02:16:31.944Z,28.1
2019-01-31T02:17:22.003Z,28.3
2019-01-31T02:18:12.090Z,28.3
2019-01-31T02:19:02.381Z,28.4
2019-01-31T02:19:52.449Z,28.5
2019-01-31T02:20:42.779Z,28.6
2019-01-31T02:21:32.029Z,28.6
2019-01-31T02:22:22.343Z,28.8
2019-01-31T02:23:12.691Z,28.8
2019-01-31T02:24:02.892Z,28.9
2019-01-31T02:24:52.686Z,29
2019-01-31T02:25:43.138Z,29.1
2019-01-31T02:26:32.921Z,29.1
2019-01-31T02:27:22.698Z,29.3
2019-01-31T02:28:13.033Z,29.3
2019-01-31T02:29:02.945Z,29.4
2019-01-31T02:29:53.256Z,29.4
2019-01-31T02:30:42.949Z,29.5
2019-01-31T02:31:32.994Z,29.6
2019-01-31T02:32:23.659Z,29.7
2019-01-31T02:33:13.666Z,29.7
2019-01-31T02:34:03.751Z,29.8
2019-01-31T02:34:53.878Z,29.9
2019-01-31T02:35:43.850Z,29.9
2019-01-31T02:36:33.355Z,30
2019-01-31T02:37:24.246Z,30.1
2019-01-31T02:38:14.018Z,30.1
2019-01-31T02:39:03.846Z,30.2
2019-01-31T02:39:54.155Z,30.3
2019-01-31T02:40:43.662Z,30.4
2019-01-31T02:41:34.545Z,30.4
2019-01-31T02:42:23.645Z,30.5
2019-01-31T02:43:14.154Z,30.6
2019-01-31T02:44:03.875Z,30.6
2019-01-31T02:44:54.477Z,30.7
2019-01-31T02:45:43.703Z,30.8
2019-01-31T02:46:34.363Z,30.8
2019-01-31T02:47:23.837Z,30.9
2019-01-31T02:48:14.155Z,31
2019-01-31T02:49:03.974Z,31.1
2019-01-31T02:49:54.832Z,31.2
2019-01-31T02:50:45.197Z,31.2
2019-01-31T02:51:34.761Z,31.3
2019-01-31T02:52:24.445Z,31.4
2019-01-31T02:53:14.490Z,31.4
2019-01-31T02:54:04.018Z,31.6
2019-01-31T02:54:54.934Z,31.6
2019-01-31T02:55:43.574Z,31.8
2019-01-31T02:56:34.754Z,31.8
2019-01-31T02:57:24.811Z,31.8
2019-01-31T02:58:14.693Z,31.9
2019-01-31T02:59:04.699Z,32
2019-01-31T02:59:55.506Z,32.1
2019-01-31T03:00:45.750Z,32.2
2019-01-31T03:01:35.677Z,32.3
2019-01-31T03:02:25.949Z,32.3
2019-01-31T03:03:15.757Z,32.4
2019-01-31T03:04:05.536Z,32.5
2019-01-31T03:04:55.611Z,32.6
2019-01-31T03:08:28.174Z,32.9
2019-01-31T03:09:18.161Z,33
2019-01-31T03:10:08.520Z,33.1
2019-01-31T03:10:58.024Z,33.2
2019-01-31T03:11:48.943Z,33.2
2019-01-31T03:12:38.450Z,33.3
2019-01-31T03:13:28.725Z,33.4
2019-01-31T03:14:19.066Z,33.5
2019-01-31T03:15:08.865Z,33.6
2019-01-31T03:15:58.893Z,33.6
2019-01-31T03:16:48.946Z,33.8
2019-01-31T03:17:38.518Z,33.8
2019-01-31T03:18:29.387Z,33.9
2019-01-31T03:19:19.192Z,33.9
2019-01-31T03:20:08.647Z,34
2019-01-31T03:20:59.365Z,34.1
2019-01-31T03:21:49.333Z,34.1
2019-01-31T03:22:39.366Z,34.2
2019-01-31T03:23:29.577Z,34.3
2019-01-31T03:24:19.236Z,34.3
2019-01-31T03:25:09.100Z,34.3
2019-01-31T03:25:58.960Z,34.3
2019-01-31T03:26:49.654Z,34.4
2019-01-31T03:27:39.732Z,34.4
2019-01-31T03:28:30.060Z,34.4
2019-01-31T03:29:19.818Z,34.5
2019-01-31T03:30:10.260Z,34.5
2019-01-31T03:30:58.858Z,34.6
2019-01-31T03:31:50.465Z,34.6
2019-01-31T03:32:40.510Z,34.6
2019-01-31T03:33:30.489Z,34.6
2019-01-31T03:34:19.914Z,34.7
2019-01-31T03:35:10.022Z,34.7
2019-01-31T03:36:00.292Z,34.7
2019-01-31T03:36:50.071Z,34.8
2019-01-31T03:37:40.104Z,34.8
2019-01-31T03:38:30.833Z,34.8
2019-01-31T03:39:20.499Z,34.8
2019-01-31T03:40:12.884Z,34.8
2019-01-31T03:41:01.033Z,34.9
2019-01-31T03:41:51.016Z,34.9
2019-01-31T03:42:40.598Z,34.9
2019-01-31T03:43:30.251Z,34.9
2019-01-31T03:44:20.895Z,34.9
2019-01-31T03:45:10.815Z,34.9
2019-01-31T03:46:00.710Z,34.9
2019-01-31T03:46:50.819Z,35
2019-01-31T03:47:41.080Z,35
2019-01-31T03:48:31.555Z,35
2019-01-31T03:49:20.978Z,35
2019-01-31T03:50:12.625Z,35.1
2019-01-31T03:51:01.309Z,35.1
2019-01-31T03:51:51.150Z,35.1
2019-01-31T03:52:41.164Z,35.1
2019-01-31T03:53:30.673Z,35.1
2019-01-31T03:54:21.365Z,35.1
2019-01-31T03:55:11.595Z,35.1
2019-01-31T03:56:01.402Z,35.1
2019-01-31T03:56:52.010Z,35.1
2019-01-31T03:57:42.130Z,35.1
2019-01-31T03:58:32.148Z,35.1
2019-01-31T03:59:22.192Z,35.1
2019-01-31T04:00:11.592Z,35.1
2019-01-31T04:01:01.750Z,35.2
2019-01-31T04:01:52.392Z,35.2
2019-01-31T04:02:42.128Z,35.2
2019-01-31T04:03:35.122Z,35.2
2019-01-31T04:04:21.962Z,35.2
2019-01-31T04:05:12.288Z,35.2
2019-01-31T04:06:02.208Z,35.2
2019-01-31T04:06:52.448Z,35.2
2019-01-31T04:07:42.205Z,35.2
2019-01-31T04:08:32.282Z,35.2
2019-01-31T04:09:22.580Z,35.3
2019-01-31T04:10:24.484Z,35.3
2019-01-31T04:11:03.051Z,35.3
2019-01-31T04:11:52.746Z,35.3
2019-01-31T04:12:42.823Z,35.3
2019-01-31T04:13:33.244Z,35.3
2019-01-31T04:14:23.022Z,35.3
2019-01-31T04:15:12.986Z,35.3
2019-01-31T04:16:02.804Z,35.3
2019-01-31T04:16:53.086Z,35.3
2019-01-31T04:17:42.876Z,35.3
2019-01-31T04:18:33.234Z,35.3
2019-01-31T04:19:23.689Z,35.3
2019-01-31T04:20:13.386Z,35.3
2019-01-31T04:21:03.131Z,35.3
2019-01-31T04:21:52.728Z,35.3
2019-01-31T04:22:43.338Z,35.3
2019-01-31T04:23:33.597Z,35.3
2019-01-31T04:24:23.613Z,35.3
2019-01-31T04:25:27.993Z,35.3
2019-01-31T04:26:04.086Z,35.3
2019-01-31T04:26:54.190Z,35.3
2019-01-31T04:27:43.857Z,35.3
2019-01-31T04:28:35.811Z,35.3
2019-01-31T04:29:23.729Z,35.3
2019-01-31T04:30:13.887Z,35.3
2019-01-31T04:31:04.194Z,35.3
2019-01-31T04:31:53.879Z,35.3
2019-01-31T04:32:44.297Z,35.3
2019-01-31T04:33:34.579Z,35.3
2019-01-31T04:34:24.594Z,35.3
2019-01-31T04:35:14.145Z,35.3
2019-01-31T04:36:04.556Z,35.3
2019-01-31T04:36:54.494Z,35.3
2019-01-31T04:37:44.681Z,35.3
2019-01-31T04:38:34.918Z,35.3
2019-01-31T04:39:23.845Z,35.3
2019-01-31T04:40:14.807Z,35.3
2019-01-31T04:41:05.049Z,35.3
2019-01-31T04:41:54.855Z,35.3
2019-01-31T04:42:45.248Z,35.3
2019-01-31T04:43:34.924Z,35.3
2019-01-31T04:44:24.585Z,35.3
2019-01-31T04:45:15.399Z,35.3
2019-01-31T04:46:04.658Z,35.3
2019-01-31T04:46:55.432Z,35.3
2019-01-31T04:47:45.640Z,35.3
2019-01-31T04:48:35.293Z,35.3
2019-01-31T04:49:25.317Z,35.3
2019-01-31T04:50:15.734Z,35.3
2019-01-31T04:51:05.574Z,35.3
2019-01-31T04:51:55.221Z,35.3
2019-01-31T04:52:45.286Z,35.3
2019-01-31T04:53:35.647Z,35.3
2019-01-31T04:54:25.161Z,35.3
2019-01-31T04:55:15.782Z,35.3
2019-01-31T04:56:05.521Z,35.3
2019-01-31T04:56:55.680Z,35.3
2019-01-31T04:57:45.927Z,35.3
2019-01-31T04:58:35.964Z,35.2
2019-01-31T04:59:25.493Z,35.2
2019-01-31T05:00:15.842Z,35.2
2019-01-31T05:01:05.610Z,35.2
2019-01-31T05:01:56.068Z,35.3
2019-01-31T05:02:45.977Z,35.2
2019-01-31T05:03:36.054Z,35.2
2019-01-31T05:04:26.424Z,35.2
2019-01-31T05:05:16.550Z,35.2
2019-01-31T05:06:05.990Z,35.2
2019-01-31T05:06:56.556Z,35.2
2019-01-31T05:07:46.916Z,35.2
2019-01-31T05:08:36.998Z,35.2
2019-01-31T05:09:26.438Z,35.2
2019-01-31T05:10:16.503Z,35.2
2019-01-31T05:11:06.834Z,35.2
2019-01-31T05:11:57.371Z,35.1
2019-01-31T05:12:47.013Z,35.1
2019-01-31T05:13:37.290Z,35.2
2019-01-31T05:14:27.109Z,35.1
2019-01-31T05:15:17.140Z,35.1
2019-01-31T05:16:09.843Z,35.1
2019-01-31T05:16:57.725Z,35.1
2019-01-31T05:17:47.426Z,35.1
2019-01-31T05:18:37.269Z,35.1
2019-01-31T05:19:27.445Z,35.1
2019-01-31T05:20:17.769Z,35.1
2019-01-31T05:21:07.544Z,35.1
2019-01-31T05:21:57.313Z,35.1
2019-01-31T05:22:47.535Z,35.1
2019-01-31T05:23:37.797Z,35.1
2019-01-31T05:24:27.756Z,35.1
2019-01-31T05:25:17.627Z,35.1
2019-01-31T05:26:07.875Z,35.1
2019-01-31T05:26:58.027Z,35.1
2019-01-31T05:27:47.969Z,35.1
2019-01-31T05:28:38.070Z,35.1
2019-01-31T05:29:28.359Z,35.1
2019-01-31T05:30:17.896Z,35.1
2019-01-31T05:31:07.975Z,35.1
2019-01-31T05:31:58.027Z,35.1
2019-01-31T05:32:48.631Z,35.1
2019-01-31T05:33:37.877Z,35.1
2019-01-31T05:34:28.181Z,35.1
2019-01-31T05:35:18.661Z,35.1
2019-01-31T05:36:08.471Z,35.1
2019-01-31T05:36:58.606Z,35.1
2019-01-31T05:37:49.086Z,35.1
2019-01-31T05:38:38.429Z,35.1
2019-01-31T05:39:28.311Z,35.1
2019-01-31T05:40:19.123Z,35.1
2019-01-31T05:41:08.968Z,35.2
2019-01-31T05:41:58.883Z,35.1
2019-01-31T05:42:49.034Z,35.2
2019-01-31T05:43:39.437Z,35.2
2019-01-31T05:44:29.327Z,35.2
2019-01-31T05:45:19.476Z,35.2
2019-01-31T05:46:09.056Z,35.2
2019-01-31T05:46:59.031Z,35.2
2019-01-31T05:47:49.520Z,35.1
2019-01-31T05:48:39.395Z,35.2
2019-01-31T05:49:29.325Z,35.2
2019-01-31T05:50:19.008Z,35.2
2019-01-31T05:51:09.558Z,35.2
2019-01-31T05:51:59.626Z,35.2
2019-01-31T05:52:50.032Z,35.2
2019-01-31T05:53:39.443Z,35.2
2019-01-31T05:54:30.078Z,35.2
2019-01-31T05:55:20.232Z,35.1
2019-01-31T05:56:09.987Z,35.1
2019-01-31T05:56:59.670Z,35.2
2019-01-31T05:57:50.142Z,35.1
2019-01-31T05:58:40.387Z,35.2
2019-01-31T05:59:29.655Z,35.2
2019-01-31T06:00:20.107Z,35.2
2019-01-31T06:01:10.580Z,35.2
2019-01-31T06:02:00.069Z,35.2
2019-01-31T06:02:50.353Z,35.2
2019-01-31T06:03:40.123Z,35.2
2019-01-31T06:04:29.987Z,35.2
2019-01-31T06:06:28.275Z,35.1
2019-01-31T06:07:18.602Z,35.1
2019-01-31T06:08:08.784Z,35.1
2019-01-31T06:08:58.809Z,35.1
2019-01-31T06:09:48.777Z,35.1
2019-01-31T06:10:39.186Z,35.1
2019-01-31T06:11:28.899Z,35.1
2019-01-31T06:12:18.669Z,35.1
2019-01-31T06:13:08.712Z,35.1
2019-01-31T06:13:59.235Z,35
2019-01-31T06:14:49.153Z,35
2019-01-31T06:15:39.019Z,35
2019-01-31T06:16:28.657Z,34.9
2019-01-31T06:17:19.318Z,34.9
2019-01-31T06:18:09.086Z,34.9
2019-01-31T06:18:59.221Z,34.9
2019-01-31T06:19:49.162Z,34.9
2019-01-31T06:20:38.146Z,34.9
2019-01-31T06:21:28.718Z,34.9
2019-01-31T06:22:19.351Z,34.9
2019-01-31T06:23:09.415Z,34.9
2019-01-31T06:23:59.713Z,34.9
2019-01-31T06:24:49.622Z,34.9
2019-01-31T06:25:39.596Z,34.9
2019-01-31T06:26:29.898Z,34.9
2019-01-31T06:27:19.388Z,34.9
2019-01-31T06:28:12.595Z,34.9
2019-01-31T06:29:00.083Z,34.8
2019-01-31T06:29:49.565Z,34.8
2019-01-31T06:30:39.705Z,34.8
2019-01-31T06:31:30.380Z,34.8
2019-01-31T06:32:20.039Z,34.8
2019-01-31T06:33:09.597Z,34.8
2019-01-31T06:34:00.580Z,34.8
2019-01-31T06:34:50.518Z,34.8
2019-01-31T06:35:40.023Z,34.8
2019-01-31T06:36:30.300Z,34.8
2019-01-31T06:37:19.810Z,34.8
2019-01-31T06:38:10.242Z,34.8
2019-01-31T06:38:59.934Z,34.7
2019-01-31T06:39:50.259Z,34.7
2019-01-31T06:40:40.857Z,34.7
2019-01-31T06:41:30.932Z,34.7
2019-01-31T06:42:20.705Z,34.7
2019-01-31T06:43:13.076Z,34.7
2019-01-31T06:44:00.819Z,34.7
2019-01-31T06:44:50.908Z,34.6
2019-01-31T06:45:40.929Z,34.6
2019-01-31T06:46:31.342Z,34.6
2019-01-31T06:47:20.759Z,34.6
2019-01-31T06:48:11.422Z,34.6
2019-01-31T06:49:00.902Z,34.6
2019-01-31T06:49:50.386Z,34.6
2019-01-31T06:50:41.549Z,34.6
2019-01-31T06:51:31.604Z,34.6
2019-01-31T06:52:21.379Z,34.6
2019-01-31T06:53:11.452Z,34.6
2019-01-31T06:54:01.771Z,34.6
2019-01-31T06:54:51.557Z,34.5
2019-01-31T06:55:41.368Z,34.5
2019-01-31T06:56:31.798Z,34.5
2019-01-31T06:57:21.438Z,34.5
2019-01-31T06:58:11.238Z,34.5
2019-01-31T06:59:00.843Z,34.5
2019-01-31T06:59:52.186Z,34.5
2019-01-31T07:00:41.947Z,34.5
2019-01-31T07:01:32.058Z,34.5
2019-01-31T07:02:22.095Z,34.5
2019-01-31T07:03:12.521Z,34.5
2019-01-31T07:04:02.454Z,34.4
2019-01-31T07:07:42.425Z,34.4
2019-01-31T07:08:32.613Z,34.4
2019-01-31T07:09:03.685Z,34.4
2019-01-31T07:09:53.725Z,34.4
2019-01-31T07:10:44.065Z,34.3
2019-01-31T07:11:38.165Z,34.3
2019-01-31T07:12:24.284Z,34.3
2019-01-31T07:13:13.498Z,34.3
2019-01-31T07:14:04.013Z,34.2
2019-01-31T07:14:53.775Z,34.2
2019-01-31T07:15:43.685Z,34.2
2019-01-31T07:16:34.193Z,34.1
2019-01-31T07:17:23.690Z,34.1
2019-01-31T07:18:14.277Z,34.1
2019-01-31T07:19:03.937Z,34.1
2019-01-31T07:19:58.043Z,34.1
2019-01-31T07:20:43.934Z,34
2019-01-31T07:21:34.527Z,34
2019-01-31T07:22:25.194Z,33.9
2019-01-31T07:23:14.394Z,33.9
2019-01-31T07:24:05.094Z,33.9
2019-01-31T07:24:54.754Z,33.9
2019-01-31T07:25:45.076Z,33.9
2019-01-31T07:26:35.554Z,33.9
2019-01-31T07:27:25.497Z,33.9
2019-01-31T07:28:15.056Z,33.8
2019-01-31T07:29:05.038Z,33.8
2019-01-31T07:29:54.832Z,33.9
2019-01-31T07:30:45.429Z,33.8
2019-01-31T07:31:35.336Z,33.8
2019-01-31T07:32:25.536Z,33.8
2019-01-31T07:33:15.329Z,33.8
2019-01-31T07:34:05.141Z,33.8
2019-01-31T07:34:55.174Z,33.8
2019-01-31T07:35:45.677Z,33.7
2019-01-31T07:36:35.871Z,33.7
2019-01-31T07:37:25.839Z,33.7
2019-01-31T07:38:15.120Z,33.7
2019-01-31T07:39:05.197Z,33.7
2019-01-31T07:39:55.763Z,33.6
2019-01-31T07:40:45.020Z,33.6
2019-01-31T07:41:46.291Z,33.6
2019-01-31T07:42:25.669Z,33.6
2019-01-31T07:43:16.035Z,33.6
2019-01-31T07:44:06.371Z,33.6
2019-01-31T07:44:55.713Z,33.6
2019-01-31T07:45:46.568Z,33.6
2019-01-31T07:46:36.088Z,33.6
2019-01-31T07:47:26.295Z,33.6
2019-01-31T07:48:16.678Z,33.6
2019-01-31T07:49:06.407Z,33.6
2019-01-31T07:49:57.033Z,33.6
2019-01-31T07:50:45.702Z,33.6
2019-01-31T07:51:36.745Z,33.6
2019-01-31T07:52:26.910Z,33.6
2019-01-31T07:53:18.275Z,33.6
2019-01-31T07:54:06.778Z,33.6
2019-01-31T07:54:56.800Z,33.5
2019-01-31T07:55:47.435Z,33.5
2019-01-31T07:56:36.449Z,33.5
2019-01-31T07:57:26.987Z,33.5
2019-01-31T07:58:16.822Z,33.5
2019-01-31T07:59:07.240Z,33.5
2019-01-31T07:59:56.884Z,33.5
2019-01-31T08:00:47.324Z,33.4
2019-01-31T08:01:40.554Z,33.4
2019-01-31T08:02:27.067Z,33.4
2019-01-31T08:03:17.106Z,33.4
2019-01-31T08:04:08.272Z,33.4
2019-01-31T08:04:58.052Z,33.4
2019-01-31T08:05:46.981Z,33.4
2019-01-31T08:06:37.459Z,33.4
2019-01-31T08:07:30.847Z,33.4
2019-01-31T08:08:18.304Z,33.4
2019-01-31T08:09:07.779Z,33.4
2019-01-31T08:10:01.289Z,33.4
2019-01-31T08:10:47.344Z,33.4
2019-01-31T08:11:38.278Z,33.4
2019-01-31T08:12:28.021Z,33.4
2019-01-31T08:13:17.251Z,33.4
2019-01-31T08:14:08.429Z,33.4
2019-01-31T08:14:58.481Z,33.4
2019-01-31T08:15:48.096Z,33.4
2019-01-31T08:16:38.851Z,33.4
2019-01-31T08:17:28.935Z,33.4
2019-01-31T08:18:19.006Z,33.4
2019-01-31T08:19:08.566Z,33.4
2019-01-31T08:19:58.526Z,33.4
2019-01-31T08:20:48.438Z,33.4
2019-01-31T08:21:42.171Z,33.3
2019-01-31T08:22:28.706Z,33.3
2019-01-31T08:23:18.511Z,33.3
2019-01-31T08:24:11.571Z,33.3
2019-01-31T08:24:57.833Z,33.8
2019-01-31T08:25:48.958Z,36.1
2019-01-31T08:26:39.003Z,40.4
2019-01-31T08:27:29.098Z,46.6
2019-01-31T08:28:19.405Z,49.2
2019-01-31T08:29:09.447Z,50.1
2019-01-31T08:29:59.223Z,50.3
2019-01-31T08:30:48.780Z,50.1
2019-01-31T08:31:39.918Z,49.8
2019-01-31T08:32:29.408Z,49.4
2019-01-31T08:33:19.210Z,49
2019-01-31T08:34:09.497Z,48.6
2019-01-31T08:34:59.328Z,48.1
2019-01-31T08:35:49.380Z,47.8
2019-01-31T08:36:39.969Z,47.4
2019-01-31T08:37:29.692Z,47
2019-01-31T08:38:19.558Z,46.6
2019-01-31T08:39:09.980Z,46.3
2019-01-31T08:40:00.485Z,46
2019-01-31T08:40:50.257Z,45.7
2019-01-31T08:41:40.042Z,45.4
2019-01-31T08:42:30.372Z,45.2
2019-01-31T08:43:23.193Z,44.9
2019-01-31T08:44:10.529Z,44.7
2019-01-31T08:45:00.267Z,44.4
2019-01-31T08:45:50.624Z,44.3
2019-01-31T08:46:40.667Z,44.1
2019-01-31T08:47:30.217Z,43.9
2019-01-31T08:48:20.497Z,43.6
2019-01-31T08:49:10.568Z,43.4
2019-01-31T08:50:01.169Z,43.3
2019-01-31T08:50:50.682Z,43.1
2019-01-31T08:51:40.939Z,43.1
2019-01-31T08:52:30.929Z,44.6
2019-01-31T08:53:20.881Z,46.9
2019-01-31T08:54:11.197Z,49.1
2019-01-31T08:55:01.777Z,48.9
2019-01-31T08:55:52.954Z,50.9
2019-01-31T08:56:39.971Z,53.1
2019-01-31T08:57:31.156Z,53.9
2019-01-31T08:58:21.771Z,53.9
2019-01-31T08:59:10.761Z,53.5
2019-01-31T09:00:00.808Z,52.9
2019-01-31T09:01:41.756Z,51.8
2019-01-31T09:02:31.201Z,51.3
2019-01-31T09:03:21.641Z,50.7
2019-01-31T09:04:11.591Z,50.1
2019-01-31T09:05:01.993Z,50
2019-01-31T09:05:51.496Z,50.8
2019-01-31T09:06:42.040Z,51.2
2019-01-31T09:07:34.803Z,51.2
2019-01-31T09:08:21.418Z,53.1
2019-01-31T09:09:12.333Z,54.3
2019-01-31T09:10:02.724Z,54.9
2019-01-31T09:10:52.089Z,54.9
2019-01-31T09:11:42.003Z,54.8
2019-01-31T09:12:32.709Z,54.8
2019-01-31T09:13:22.503Z,54.8
2019-01-31T09:14:12.110Z,54.8
2019-01-31T09:15:02.488Z,55
2019-01-31T09:15:52.960Z,55.3
2019-01-31T09:16:43.020Z,55.5
2019-01-31T09:17:31.487Z,55.7
2019-01-31T09:18:22.882Z,55.9
2019-01-31T09:19:12.585Z,56
2019-01-31T09:20:02.217Z,56.1
2019-01-31T09:20:53.050Z,56.3
2019-01-31T09:21:42.409Z,56.4
2019-01-31T09:22:32.597Z,56.5
2019-01-31T09:23:22.945Z,56.6
2019-01-31T09:24:11.955Z,56.8
2019-01-31T09:25:02.974Z,56.9
2019-01-31T09:25:52.862Z,56.9
2019-01-31T09:26:42.899Z,57.1
2019-01-31T09:27:33.244Z,57.2
2019-01-31T09:28:23.027Z,57.3
2019-01-31T09:29:12.533Z,57.4
2019-01-31T09:30:03.963Z,57.5
2019-01-31T09:30:54.031Z,57.6
2019-01-31T09:31:42.704Z,57.6
2019-01-31T09:32:34.139Z,57.7
2019-01-31T09:33:23.667Z,57.6
2019-01-31T09:34:13.417Z,57.6
2019-01-31T09:35:07.122Z,57.3
2019-01-31T09:35:54.097Z,57.1
2019-01-31T09:36:43.668Z,56.9
2019-01-31T09:37:33.931Z,56.8
2019-01-31T09:38:23.678Z,56.6
2019-01-31T09:39:14.624Z,56.7
2019-01-31T09:40:04.701Z,56.9
2019-01-31T09:40:54.156Z,57.1
2019-01-31T09:41:44.793Z,57.3
2019-01-31T09:42:34.261Z,57.4
2019-01-31T09:43:24.899Z,57.2
2019-01-31T09:44:14.683Z,56.9
2019-01-31T09:45:08.363Z,56.6
2019-01-31T09:45:54.320Z,56.3
2019-01-31T09:46:44.224Z,56.2
2019-01-31T09:47:37.623Z,56.1
2019-01-31T09:48:24.698Z,56
2019-01-31T09:49:14.761Z,55.9
2019-01-31T09:50:04.486Z,55.9
2019-01-31T09:50:54.456Z,55.9
2019-01-31T09:51:44.953Z,55.8
2019-01-31T09:52:34.710Z,55.7
2019-01-31T09:53:25.044Z,55.5
2019-01-31T09:54:14.918Z,55.3
2019-01-31T09:55:05.768Z,55.2
2019-01-31T09:55:55.030Z,55.1
2019-01-31T09:56:45.292Z,55
2019-01-31T09:57:35.635Z,55
2019-01-31T09:58:28.825Z,54.9
2019-01-31T09:59:15.268Z,54.9
2019-01-31T10:00:05.580Z,54.8
2019-01-31T10:00:55.290Z,54.6
2019-01-31T10:01:46.177Z,54.5
2019-01-31T10:02:35.397Z,54.5
2019-01-31T10:03:25.462Z,54.5
2019-01-31T10:04:15.818Z,54.4
2019-01-31T10:05:05.867Z,54.3
2019-01-31T10:07:28.411Z,54.1
2019-01-31T10:08:18.148Z,54.1
2019-01-31T10:09:08.210Z,54.1
2019-01-31T10:09:58.297Z,54
2019-01-31T10:10:49.672Z,53.9
2019-01-31T10:11:37.814Z,53.7
2019-01-31T10:12:41.920Z,53.5
2019-01-31T10:13:19.009Z,53.4
2019-01-31T10:14:09.051Z,53.4
2019-01-31T10:14:59.406Z,53.1
2019-01-31T10:15:48.437Z,52.7
2019-01-31T10:16:39.426Z,52.3
2019-01-31T10:17:28.821Z,51.8
2019-01-31T10:18:19.989Z,51.4
2019-01-31T10:19:09.145Z,51.1
2019-01-31T10:19:58.829Z,50.6
2019-01-31T10:20:48.849Z,50.2
2019-01-31T10:21:39.476Z,49.7
2019-01-31T10:22:30.263Z,49.3
2019-01-31T10:23:19.400Z,48.8
2019-01-31T10:24:09.642Z,48.3
2019-01-31T10:25:00.420Z,47.9
2019-01-31T10:25:49.043Z,47.5
2019-01-31T10:26:39.338Z,47.1
2019-01-31T10:27:28.586Z,46.8
2019-01-31T10:28:19.438Z,46.4
2019-01-31T10:29:09.264Z,46.1
2019-01-31T10:29:59.623Z,45.8
2019-01-31T10:30:49.645Z,45.4
2019-01-31T10:31:39.407Z,45.1
2019-01-31T10:32:30.043Z,44.9
2019-01-31T10:33:19.260Z,44.6
2019-01-31T10:34:09.664Z,44.4
2019-01-31T10:35:00.199Z,44.2
2019-01-31T10:35:49.682Z,43.9
2019-01-31T10:36:39.487Z,43.8
2019-01-31T10:37:30.092Z,43.6
2019-01-31T10:38:20.560Z,43.4
2019-01-31T10:39:09.940Z,43.2
2019-01-31T10:39:59.992Z,43
2019-01-31T10:40:50.606Z,42.9
2019-01-31T10:41:39.843Z,42.7
2019-01-31T10:42:30.242Z,42.5
2019-01-31T10:43:20.282Z,42.4
2019-01-31T10:44:10.421Z,42.2
2019-01-31T10:45:00.718Z,42.1
2019-01-31T10:45:49.888Z,41.9
2019-01-31T10:46:40.307Z,41.8
2019-01-31T10:47:30.662Z,41.6
2019-01-31T10:48:20.065Z,41.5
2019-01-31T10:49:10.631Z,41.4
2019-01-31T10:50:00.967Z,41.3
2019-01-31T10:50:51.052Z,41.1
2019-01-31T10:51:41.099Z,41
2019-01-31T10:52:30.629Z,40.9
2019-01-31T10:53:21.578Z,40.8
2019-01-31T10:54:11.411Z,40.6
2019-01-31T10:55:01.359Z,40.5
2019-01-31T10:55:50.853Z,40.4
2019-01-31T10:56:40.729Z,40.3
2019-01-31T10:57:31.266Z,40.2
2019-01-31T10:58:21.706Z,40.1
2019-01-31T10:59:11.893Z,40
2019-01-31T11:00:01.717Z,39.9
2019-01-31T11:00:51.474Z,39.8
2019-01-31T11:01:41.522Z,39.7
2019-01-31T11:02:31.708Z,39.6
2019-01-31T11:03:21.088Z,39.5
2019-01-31T11:04:12.246Z,39.4
2019-01-31T11:05:02.124Z,39.4
2019-01-31T11:05:52.093Z,39.3
2019-01-31T11:06:42.453Z,39.3
2019-01-31T11:07:32.077Z,39.1
2019-01-31T11:08:22.068Z,39.1
2019-01-31T11:09:11.305Z,38.9
2019-01-31T11:10:01.294Z,38.9
2019-01-31T11:10:51.558Z,38.8
2019-01-31T11:11:42.495Z,38.8
2019-01-31T11:12:31.807Z,38.7
2019-01-31T11:13:22.158Z,38.6
2019-01-31T11:14:12.045Z,38.5
2019-01-31T11:15:01.741Z,38.4
2019-01-31T11:15:52.633Z,38.4
2019-01-31T11:16:43.140Z,38.3
2019-01-31T11:17:32.675Z,38.3